Time;durP1;ratioP1;P1;durP2;ratioP2;P2;SDS_P1;SDS_P2;PMS_P1;PMS_P2;Temp;Humidity;BMP_temperature;BMP_pressure;BME280_temperature;BME280_humidity;BME280_pressure;Samples;Min_cycle;Max_cycle;Signal;HPM_P1;HPM_P2
2022/01/19 00:01:07;;;;;;;87.17;62.43;;;;;;;-145.93;100.00;59239.47;4882963;29;20029;-86
2022/01/19 00:03:32;;;;;;;77.53;60.80;;;;;;;-145.93;100.00;59239.47;4896449;29;20032;-83
2022/01/19 00:06:00;;;;;;;76.73;61.03;;;;;;;-145.93;100.00;59239.47;4877046;29;20029;-86
2022/01/19 00:08:29;;;;;;;83.22;62.08;;;;;;;-145.93;100.00;59239.47;4881460;29;20422;-86
2022/01/19 00:10:58;;;;;;;78.07;60.78;;;;;;;-145.93;100.00;59239.47;4895254;29;20244;-86
2022/01/19 00:13:24;;;;;;;80.18;61.95;;;;;;;-145.93;100.00;59239.47;4878874;29;20029;-86
2022/01/19 00:15:52;;;;;;;83.65;62.60;;;;;;;-145.93;100.00;59239.47;4882025;29;20021;-86
2022/01/19 00:18:19;;;;;;;88.90;61.45;;;;;;;-145.93;100.00;59239.47;4877995;29;20485;-85
2022/01/19 00:20:45;;;;;;;90.82;65.55;;;;;;;-145.93;100.00;59239.47;4893527;29;20032;-84
2022/01/19 00:23:11;;;;;;;83.47;63.25;;;;;;;-145.93;100.00;59239.47;4875193;29;20100;-86
2022/01/19 00:25:37;;;;;;;85.90;63.25;;;;;;;-145.93;100.00;59239.47;4889580;29;20130;-86
2022/01/19 00:28:03;;;;;;;87.32;64.10;;;;;;;-145.93;100.00;59239.47;4879317;29;20052;-85
2022/01/19 00:30:28;;;;;;;86.18;64.10;;;;;;;-145.93;100.00;59239.47;4876908;29;20073;-85
2022/01/19 00:32:54;;;;;;;90.13;63.60;;;;;;;-145.93;100.00;59239.47;4871914;29;20055;-84
2022/01/19 00:35:19;;;;;;;85.83;65.17;;;;;;;-145.93;100.00;59239.47;4875545;29;20080;-86
2022/01/19 00:37:45;;;;;;;97.03;64.93;;;;;;;-145.93;100.00;59239.47;4895121;29;20075;-85
2022/01/19 00:40:15;;;;;;;90.22;64.03;;;;;;;-145.93;100.00;59239.47;4877776;29;20028;-86
2022/01/19 00:42:46;;;;;;;90.80;64.32;;;;;;;-145.93;100.00;59239.47;4875133;29;20028;-86
2022/01/19 00:45:14;;;;;;;87.10;63.08;;;;;;;-145.93;100.00;59239.47;4891716;29;20036;-84
2022/01/19 00:47:41;;;;;;;88.70;65.13;;;;;;;-145.93;100.00;59239.47;4896404;29;20028;-84
2022/01/19 00:50:09;;;;;;;88.75;63.33;;;;;;;-145.93;100.00;59239.47;4886788;29;20066;-85
2022/01/19 00:52:35;;;;;;;87.47;62.92;;;;;;;-145.93;100.00;59239.47;4869449;29;20031;-87
2022/01/19 00:55:07;;;;;;;87.43;62.63;;;;;;;-145.93;100.00;59239.47;4889734;29;20508;-85
2022/01/19 00:57:32;;;;;;;89.78;63.75;;;;;;;-145.93;100.00;59239.47;4899664;29;20066;-85
2022/01/19 00:59:58;;;;;;;95.38;65.95;;;;;;;-145.93;100.00;59239.47;4890777;29;20017;-86
2022/01/19 01:02:23;;;;;;;83.53;61.70;;;;;;;-145.93;100.00;59239.47;4869129;29;20037;-86
2022/01/19 01:04:49;;;;;;;91.27;62.37;;;;;;;-145.93;100.00;59239.47;4882865;29;20024;-86
2022/01/19 01:07:17;;;;;;;81.40;62.67;;;;;;;-145.93;100.00;59239.47;4893049;29;20063;-84
2022/01/19 01:09:43;;;;;;;81.50;63.22;;;;;;;-145.93;100.00;59239.47;4872809;29;20041;-88
2022/01/19 01:12:13;;;;;;;80.77;60.93;;;;;;;-145.93;100.00;59239.47;4880779;29;20028;-86
2022/01/19 01:20:09;;;;;;;82.95;62.75;;;;;;;-145.93;100.00;59239.47;4894377;29;20094;-85
2022/01/19 01:22:38;;;;;;;86.68;62.72;;;;;;;-145.93;100.00;59239.47;4880034;29;20108;-86
2022/01/19 01:25:07;;;;;;;92.15;64.35;;;;;;;-145.93;100.00;59239.47;4874089;29;20037;-86
2022/01/19 01:27:33;;;;;;;87.43;64.28;;;;;;;-145.93;100.00;59239.47;4881525;29;20024;-87
2022/01/19 01:29:58;;;;;;;95.10;67.50;;;;;;;-145.93;100.00;59239.47;4894800;29;20036;-85
2022/01/19 01:32:23;;;;;;;86.77;63.43;;;;;;;-145.93;100.00;59239.47;4882504;29;20267;-86
2022/01/19 01:34:52;;;;;;;86.07;61.47;;;;;;;-145.93;100.00;59239.47;4891732;29;20025;-85
2022/01/19 01:37:18;;;;;;;88.43;62.88;;;;;;;-145.93;100.00;59239.47;4886858;29;20017;-86
2022/01/19 01:39:43;;;;;;;85.68;64.72;;;;;;;-145.93;100.00;59239.47;4884878;29;20020;-86
2022/01/19 01:42:15;;;;;;;86.47;63.03;;;;;;;-145.93;100.00;59239.47;4871404;29;20032;-86
2022/01/19 01:44:47;;;;;;;84.10;63.22;;;;;;;-145.93;100.00;59239.47;4876763;29;20104;-86
2022/01/19 01:47:14;;;;;;;82.05;61.33;;;;;;;-145.93;100.00;59239.47;4882342;29;20028;-86
2022/01/19 01:49:46;;;;;;;85.60;62.42;;;;;;;-145.93;100.00;59239.47;4882604;29;20027;-86
2022/01/19 01:54:57;;;;;;;79.97;60.92;;;;;;;-145.93;100.00;59239.47;4898874;29;20023;-86
2022/01/19 01:57:25;;;;;;;74.23;60.83;;;;;;;-145.93;100.00;59239.47;4899142;29;20029;-86
2022/01/19 01:59:50;;;;;;;76.53;59.10;;;;;;;-145.93;100.00;59239.47;4884577;29;20063;-86
2022/01/19 02:02:16;;;;;;;79.93;59.43;;;;;;;-145.93;100.00;59239.47;4897067;29;20056;-85
2022/01/19 02:04:41;;;;;;;76.17;58.17;;;;;;;-145.93;100.00;59239.47;4862485;29;20193;-86
2022/01/19 02:09:58;;;;;;;77.28;58.20;;;;;;;-145.93;100.00;59239.47;4897823;29;20065;-85
2022/01/19 02:23:28;;;;;;;81.72;61.83;;;;;;;-145.93;100.00;59239.47;4895371;29;20116;-84
2022/01/19 02:26:04;;;;;;;79.60;61.65;;;;;;;-145.93;100.00;59239.47;4885039;29;20057;-84
2022/01/19 02:42:36;;;;;;;80.45;60.55;;;;;;;-145.93;100.00;59239.47;4895881;29;20027;-86
2022/01/19 02:50:14;;;;;;;75.22;59.90;;;;;;;-145.93;100.00;59239.47;4894806;29;20128;-85
2022/01/19 02:52:40;;;;;;;70.03;57.30;;;;;;;-145.93;100.00;59239.47;4890632;29;20052;-85
2022/01/19 02:55:05;;;;;;;73.50;57.83;;;;;;;-145.93;100.00;59239.47;4886715;29;20025;-85
2022/01/19 02:57:35;;;;;;;75.75;56.15;;;;;;;-145.93;100.00;59239.47;4882311;29;20163;-85
2022/01/19 03:10:58;;;;;;;67.50;58.15;;;;;;;-145.93;100.00;59239.47;4895344;29;20235;-86
2022/01/19 03:13:23;;;;;;;74.97;55.97;;;;;;;-145.93;100.00;59239.47;4886849;29;20085;-85
2022/01/19 03:15:48;;;;;;;72.93;56.13;;;;;;;-145.93;100.00;59239.47;4929589;23;20051;-80
2022/01/19 03:18:15;;;;;;;70.93;57.07;;;;;;;-145.93;100.00;59239.47;4923492;29;20031;-80
2022/01/19 03:20:40;;;;;;;76.78;58.13;;;;;;;-145.93;100.00;59239.47;4906370;29;20091;-80
2022/01/19 03:23:20;;;;;;;72.97;57.37;;;;;;;-145.93;100.00;59239.47;4924623;29;20106;-80
2022/01/19 03:25:47;;;;;;;78.35;58.13;;;;;;;-145.93;100.00;59239.47;4921841;29;20035;-79
2022/01/19 03:28:12;;;;;;;78.82;58.33;;;;;;;-145.93;100.00;59239.47;4909324;29;20038;-78
2022/01/19 03:30:38;;;;;;;80.60;59.13;;;;;;;-145.93;100.00;59239.47;4928156;29;20027;-80
2022/01/19 03:33:03;;;;;;;70.33;55.93;;;;;;;-145.93;100.00;59239.47;4926980;29;20031;-80
2022/01/19 03:35:29;;;;;;;75.40;57.60;;;;;;;-145.93;100.00;59239.47;4904804;29;20024;-80
2022/01/19 03:37:54;;;;;;;72.23;55.73;;;;;;;-145.93;100.00;59239.47;4908887;29;20397;-79
2022/01/19 03:40:22;;;;;;;66.47;55.53;;;;;;;-145.93;100.00;59239.47;4919654;29;20258;-80
2022/01/19 03:42:47;;;;;;;86.65;60.33;;;;;;;-145.93;100.00;59239.47;4905583;29;20517;-80
2022/01/19 03:45:13;;;;;;;80.23;56.83;;;;;;;-145.93;100.00;59239.47;4919870;29;20115;-79
2022/01/19 03:47:46;;;;;;;68.37;55.73;;;;;;;-145.93;100.00;59239.47;4906265;29;20028;-80
2022/01/19 03:50:11;;;;;;;70.40;55.90;;;;;;;-145.93;100.00;59239.47;4906914;29;20027;-79
2022/01/19 03:52:37;;;;;;;82.13;58.63;;;;;;;-145.93;100.00;59239.47;4918737;29;20054;-79
2022/01/19 03:55:03;;;;;;;87.97;60.60;;;;;;;-145.93;100.00;59239.47;4915168;29;20028;-79
2022/01/19 03:57:28;;;;;;;70.90;57.13;;;;;;;-145.93;100.00;59239.47;4918896;29;20023;-81
2022/01/19 03:59:54;;;;;;;69.90;55.03;;;;;;;-145.93;100.00;59239.47;4918104;29;20058;-79
2022/01/19 04:02:19;;;;;;;66.70;55.30;;;;;;;-145.93;100.00;59239.47;4932517;29;20028;-79
2022/01/19 04:05:01;;;;;;;75.03;56.63;;;;;;;-145.93;100.00;59239.47;4904602;29;20264;-78
2022/01/19 04:07:26;;;;;;;68.68;55.72;;;;;;;-145.93;100.00;59239.47;4906488;29;20028;-79
2022/01/19 04:09:52;;;;;;;64.93;55.07;;;;;;;-145.93;100.00;59239.47;4907913;29;20023;-80
2022/01/19 04:12:26;;;;;;;71.63;56.90;;;;;;;-145.93;100.00;59239.47;4920935;29;20027;-79
2022/01/19 04:14:51;;;;;;;78.43;58.58;;;;;;;-145.93;100.00;59239.47;4920069;29;20041;-79
2022/01/19 04:17:17;;;;;;;66.40;56.43;;;;;;;-145.93;100.00;59239.47;4905902;29;20031;-80
2022/01/19 04:19:45;;;;;;;75.10;57.17;;;;;;;-145.93;100.00;59239.47;4905852;29;20024;-79
2022/01/19 04:22:14;;;;;;;74.88;58.22;;;;;;;-145.93;100.00;59239.47;4902761;29;20032;-80
2022/01/19 04:24:39;;;;;;;68.57;56.75;;;;;;;-145.93;100.00;59239.47;4918528;29;20024;-77
2022/01/19 04:30:08;;;;;;;72.05;56.92;;;;;;;-145.93;100.00;59239.47;4931837;29;20063;-79
2022/01/19 04:35:13;;;;;;;90.70;60.67;;;;;;;-145.93;100.00;59239.47;4917843;29;20103;-79
2022/01/19 05:01:58;;;;;;;64.88;54.80;;;;;;;-145.93;100.00;59239.47;4925409;29;20056;-80
2022/01/19 05:04:34;;;;;;;65.88;54.70;;;;;;;-145.93;100.00;59239.47;4904220;29;20110;-79
2022/01/19 05:07:11;;;;;;;67.68;55.38;;;;;;;-145.93;100.00;59239.47;4920525;29;20028;-79
2022/01/19 05:14:46;;;;;;;80.78;58.58;;;;;;;-145.93;100.00;59239.47;4945902;29;20047;-80
2022/01/19 05:17:11;;;;;;;73.25;56.25;;;;;;;-145.93;100.00;59239.47;4913132;29;20402;-80
2022/01/19 05:19:37;;;;;;;72.30;56.40;;;;;;;-145.93;100.00;59239.47;4922406;29;20063;-82
2022/01/19 05:22:03;;;;;;;71.78;54.55;;;;;;;-145.93;100.00;59239.47;4915347;29;20331;-79
2022/01/19 05:24:28;;;;;;;68.10;54.63;;;;;;;-145.93;100.00;59239.47;4910792;29;20028;-78
2022/01/19 05:26:53;;;;;;;67.30;56.20;;;;;;;-145.93;100.00;59239.47;4913034;29;20060;-79
2022/01/19 05:29:19;;;;;;;71.43;56.63;;;;;;;-145.93;100.00;59239.47;4910239;29;20035;-77
2022/01/19 05:31:44;;;;;;;66.60;55.87;;;;;;;-145.93;100.00;59239.47;4920732;29;20051;-79
2022/01/19 05:34:09;;;;;;;69.73;55.90;;;;;;;-145.93;100.00;59239.47;4926056;29;20039;-79
2022/01/19 05:36:35;;;;;;;72.33;54.90;;;;;;;-145.93;100.00;59239.47;4908158;29;20087;-79
2022/01/19 05:39:04;;;;;;;70.27;54.97;;;;;;;-145.93;100.00;59239.47;4910749;29;20132;-79
2022/01/19 05:41:30;;;;;;;61.55;53.70;;;;;;;-145.93;100.00;59239.47;4919445;29;20056;-78
2022/01/19 05:43:55;;;;;;;67.23;55.57;;;;;;;-145.93;100.00;59239.47;4926625;29;20050;-78
2022/01/19 05:46:21;;;;;;;63.33;54.63;;;;;;;-145.93;100.00;59239.47;4906913;29;20032;-81
2022/01/19 05:48:47;;;;;;;63.55;54.75;;;;;;;-145.93;100.00;59239.47;4909328;29;20032;-79
2022/01/19 05:51:12;;;;;;;69.27;55.60;;;;;;;-145.93;100.00;59239.47;4919240;29;20039;-77
2022/01/19 05:53:37;;;;;;;80.60;58.27;;;;;;;-145.93;100.00;59239.47;4910079;29;20046;-78
2022/01/19 05:56:03;;;;;;;70.00;56.80;;;;;;;-145.93;100.00;59239.47;4924042;29;20027;-77
2022/01/19 05:58:28;;;;;;;72.83;56.60;;;;;;;-145.93;100.00;59239.47;4919092;29;20176;-77
2022/01/19 06:00:54;;;;;;;68.67;56.17;;;;;;;-145.93;100.00;59239.47;4923112;29;20028;-76
2022/01/19 06:03:19;;;;;;;67.97;55.13;;;;;;;-145.93;100.00;59239.47;4911746;29;20091;-78
2022/01/19 06:05:47;;;;;;;77.73;57.33;;;;;;;-145.93;100.00;59239.47;4901825;29;20254;-77
2022/01/19 06:08:39;;;;;;;75.18;57.72;;;;;;;-145.93;100.00;59239.47;4914241;29;20373;-79
2022/01/19 06:11:04;;;;;;;75.88;56.63;;;;;;;-145.93;100.00;59239.47;4932154;29;20187;-77
2022/01/19 06:13:29;;;;;;;72.70;56.73;;;;;;;-145.93;100.00;59239.47;4906385;29;20116;-78
2022/01/19 06:15:54;;;;;;;82.50;58.17;;;;;;;-145.93;100.00;59239.47;4913820;29;20032;-76
2022/01/19 06:18:21;;;;;;;75.77;58.63;;;;;;;-145.93;100.00;59239.47;4912491;29;20058;-78
2022/01/19 06:20:47;;;;;;;91.03;59.92;;;;;;;-145.93;100.00;59239.47;4916188;29;20039;-80
2022/01/19 06:23:12;;;;;;;80.18;58.33;;;;;;;-145.93;100.00;59239.47;4925759;29;20046;-80
2022/01/19 06:25:38;;;;;;;84.87;60.87;;;;;;;-145.93;100.00;59239.47;4921423;29;20087;-78
2022/01/19 06:28:03;;;;;;;83.30;60.37;;;;;;;-145.93;100.00;59239.47;4909055;29;20055;-79
2022/01/19 06:30:29;;;;;;;85.47;59.35;;;;;;;-145.93;100.00;59239.47;4933293;29;20094;-78
2022/01/19 06:32:54;;;;;;;84.72;60.53;;;;;;;-145.93;100.00;59239.47;4904334;29;20059;-80
2022/01/19 06:35:21;;;;;;;89.77;61.63;;;;;;;-145.93;100.00;59239.47;4922676;29;20023;-81
2022/01/19 06:37:46;;;;;;;93.05;61.30;;;;;;;-145.93;100.00;59239.47;4932027;29;20035;-80
2022/01/19 06:40:13;;;;;;;84.47;61.80;;;;;;;-145.93;100.00;59239.47;4921725;29;20036;-81
2022/01/19 06:42:39;;;;;;;91.90;63.53;;;;;;;-145.93;100.00;59239.47;4913086;29;20024;-79
2022/01/19 06:45:05;;;;;;;102.72;66.70;;;;;;;-145.93;100.00;59239.47;4914153;29;20054;-80
2022/01/19 06:47:31;;;;;;;;;;;;;;;-145.93;100.00;59239.47;4912609;29;20079;-81
2022/01/19 06:49:56;;;;;;;93.35;64.35;;;;;;;-145.93;100.00;59239.47;4900544;29;19911;-80
2022/01/19 06:52:21;;;;;;;99.77;66.23;;;;;;;-145.93;100.00;59239.47;4903695;29;20020;-79
2022/01/19 06:54:47;;;;;;;109.03;68.30;;;;;;;-145.93;100.00;59239.47;4902028;29;20020;-81
2022/01/19 06:57:12;;;;;;;89.30;64.10;;;;;;;-145.93;100.00;59239.47;4922416;29;20099;-79
2022/01/19 06:59:38;;;;;;;89.00;63.03;;;;;;;-145.93;100.00;59239.47;4926259;29;20100;-83
2022/01/19 07:02:03;;;;;;;85.30;63.77;;;;;;;-145.93;100.00;59239.47;4911763;29;20028;-82
2022/01/19 07:04:29;;;;;;;89.28;63.78;;;;;;;-145.93;100.00;59239.47;4907421;29;20229;-82
2022/01/19 07:06:54;;;;;;;97.87;65.33;;;;;;;-145.93;100.00;59239.47;4913832;29;20624;-79
2022/01/19 07:09:20;;;;;;;87.70;62.97;;;;;;;-145.93;100.00;59239.47;4921381;29;20031;-80
2022/01/19 07:11:45;;;;;;;85.53;63.40;;;;;;;-145.93;100.00;59239.47;4906076;29;20035;-79
2022/01/19 07:14:14;;;;;;;100.30;66.43;;;;;;;-145.93;100.00;59239.47;4926776;29;20020;-80
2022/01/19 07:16:39;;;;;;;94.43;62.50;;;;;;;-145.93;100.00;59239.47;4900045;29;20636;-79
2022/01/19 07:19:05;;;;;;;85.38;63.13;;;;;;;-145.93;100.00;59239.47;4909501;29;20028;-79
2022/01/19 07:21:30;;;;;;;87.63;62.67;;;;;;;-145.93;100.00;59239.47;4910252;29;20035;-78
2022/01/19 07:23:56;;;;;;;81.13;62.87;;;;;;;-145.93;100.00;59239.47;4911421;29;20040;-79
2022/01/19 07:26:22;;;;;;;91.07;62.87;;;;;;;-145.93;100.00;59239.47;4916784;29;20092;-79
2022/01/19 07:28:48;;;;;;;82.95;61.38;;;;;;;-145.93;100.00;59239.47;4907926;29;20505;-78
2022/01/19 07:31:13;;;;;;;88.53;63.08;;;;;;;-145.93;100.00;59239.47;4906150;29;20062;-78
2022/01/19 07:33:39;;;;;;;98.50;65.80;;;;;;;-145.93;100.00;59239.47;4907273;29;20053;-80
2022/01/19 07:36:04;;;;;;;88.33;62.70;;;;;;;-145.93;100.00;59239.47;4906202;29;20039;-79
2022/01/19 07:38:39;;;;;;;84.87;60.77;;;;;;;-145.93;100.00;59239.47;4913703;29;20091;-79
2022/01/19 07:41:04;;;;;;;103.05;66.90;;;;;;;-145.93;100.00;59239.47;4910522;29;20043;-79
2022/01/19 07:43:30;;;;;;;87.70;62.27;;;;;;;-145.93;100.00;59239.47;4904581;29;20382;-78
2022/01/19 07:45:55;;;;;;;91.40;63.75;;;;;;;-145.93;100.00;59239.47;4916270;29;20043;-80
2022/01/19 07:48:20;;;;;;;89.33;63.47;;;;;;;-145.93;100.00;59239.47;4903649;29;20039;-79
2022/01/19 07:50:46;;;;;;;86.20;63.20;;;;;;;-145.93;100.00;59239.47;4921669;29;20020;-79
2022/01/19 07:53:11;;;;;;;100.17;65.07;;;;;;;-145.93;100.00;59239.47;4929712;29;20032;-79
2022/01/19 07:55:37;;;;;;;91.40;65.60;;;;;;;-145.93;100.00;59239.47;4919063;29;20075;-79
2022/01/19 07:58:02;;;;;;;95.20;64.90;;;;;;;-145.93;100.00;59239.47;4921561;29;20071;-79
2022/01/19 08:00:28;;;;;;;91.87;63.93;;;;;;;-145.93;100.00;59239.47;4905142;29;20024;-80
2022/01/19 08:02:54;;;;;;;98.50;66.07;;;;;;;-145.93;100.00;59239.47;4921301;29;20026;-81
2022/01/19 08:05:19;;;;;;;107.60;68.33;;;;;;;-145.93;100.00;59239.47;4906553;29;20075;-79
2022/01/19 08:07:45;;;;;;;98.80;64.80;;;;;;;-145.93;100.00;59239.47;4906793;29;20027;-78
2022/01/19 08:10:11;;;;;;;90.17;65.97;;;;;;;-145.93;100.00;59239.47;4916569;29;20092;-79
2022/01/19 08:12:37;;;;;;;121.85;69.13;;;;;;;-145.93;100.00;59239.47;4910197;29;20097;-79
2022/01/19 08:15:03;;;;;;;108.45;68.30;;;;;;;-145.93;100.00;59239.47;4922384;29;20076;-78
2022/01/19 08:17:29;;;;;;;97.43;64.05;;;;;;;-145.93;100.00;59239.47;4908272;29;20115;-78
2022/01/19 08:19:55;;;;;;;89.43;64.80;;;;;;;-145.93;100.00;59239.47;4922761;29;20119;-78
2022/01/19 08:22:21;;;;;;;88.63;64.22;;;;;;;-145.93;100.00;59239.47;4905778;29;20028;-79
2022/01/19 08:24:46;;;;;;;104.07;66.43;;;;;;;-145.93;100.00;59239.47;4902483;29;20060;-79
2022/01/19 08:27:12;;;;;;;89.87;63.50;;;;;;;-145.93;100.00;59239.47;4916565;29;20350;-82
2022/01/19 08:29:38;;;;;;;87.82;62.47;;;;;;;-145.93;100.00;59239.47;4901772;29;20335;-79
2022/01/19 08:32:04;;;;;;;96.30;65.30;;;;;;;-145.93;100.00;59239.47;4930715;29;20034;-79
2022/01/19 08:34:30;;;;;;;96.28;64.55;;;;;;;-145.93;100.00;59239.47;4902203;29;20393;-80
2022/01/19 08:36:56;;;;;;;109.55;68.38;;;;;;;-145.93;100.00;59239.47;4896745;29;20117;-80
2022/01/19 08:39:21;;;;;;;92.07;63.50;;;;;;;-145.93;100.00;59239.47;4917910;29;20107;-79
2022/01/19 08:41:46;;;;;;;91.07;63.77;;;;;;;-145.93;100.00;59239.47;4917976;29;20106;-80
2022/01/19 08:44:12;;;;;;;90.77;64.83;;;;;;;-145.93;100.00;59239.47;4902044;29;20034;-79
2022/01/19 08:46:39;;;;;;;89.63;64.63;;;;;;;-145.93;100.00;59239.47;4911335;29;20028;-78
2022/01/19 08:49:04;;;;;;;102.68;66.18;;;;;;;-145.93;100.00;59239.47;4921316;29;20056;-79
2022/01/19 08:51:29;;;;;;;127.80;69.53;;;;;;;-145.93;100.00;59239.47;4903731;29;20020;-79
2022/01/19 08:53:55;;;;;;;120.43;71.63;;;;;;;-145.93;100.00;59239.47;4891220;29;20533;-80
2022/01/19 08:56:21;;;;;;;107.78;66.95;;;;;;;-145.93;100.00;59239.47;4926141;29;20031;-80
2022/01/19 08:58:46;;;;;;;103.33;68.67;;;;;;;-145.93;100.00;59239.47;4922609;29;20034;-83
2022/01/19 09:01:11;;;;;;;137.23;74.10;;;;;;;-145.93;100.00;59239.47;4905627;29;20059;-80
2022/01/19 09:03:37;;;;;;;102.77;68.97;;;;;;;-145.93;100.00;59239.47;4905194;29;20536;-78
2022/01/19 09:06:02;;;;;;;118.30;68.20;;;;;;;-145.93;100.00;59239.47;4898044;29;20088;-79
2022/01/19 09:08:30;;;;;;;102.63;66.60;;;;;;;-145.93;100.00;59239.47;4904891;29;20036;-78
2022/01/19 09:10:58;;;;;;;108.45;67.63;;;;;;;-145.93;100.00;59239.47;4900679;29;20032;-76
2022/01/19 09:13:24;;;;;;;105.25;67.90;;;;;;;-145.93;100.00;59239.47;4902596;29;20022;-78
2022/01/19 09:15:49;;;;;;;107.95;66.90;;;;;;;-145.93;100.00;59239.47;4971489;23;20056;-87
2022/01/19 09:18:20;;;;;;;91.87;64.47;;;;;;;-145.93;100.00;59239.47;4915570;29;20028;-85
2022/01/19 09:20:57;;;;;;;105.15;69.50;;;;;;;-145.93;100.00;59239.47;4911711;29;20036;-87
2022/01/19 09:23:31;;;;;;;99.90;66.85;;;;;;;-145.93;100.00;59239.47;4916213;29;20040;-86
2022/01/19 09:25:56;;;;;;;100.32;67.00;;;;;;;-145.93;100.00;59239.47;4921755;29;20502;-88
2022/01/19 09:28:22;;;;;;;92.40;64.80;;;;;;;-145.93;100.00;59239.47;4920895;29;20035;-86
2022/01/19 09:31:24;;;;;;;101.22;67.97;;;;;;;-145.93;100.00;59239.47;4920682;29;20271;-88
2022/01/19 09:33:54;;;;;;;97.55;70.40;;;;;;;-145.93;100.00;59239.47;4884782;29;20031;-88
2022/01/19 09:38:54;;;;;;;105.30;65.57;;;;;;;-145.93;100.00;59239.47;4924921;29;20035;-88
2022/01/19 09:44:54;;;;;;;104.88;66.65;;;;;;;-145.93;100.00;59239.47;4851480;29;20038;-88
2022/01/19 09:47:20;;;;;;;96.38;67.85;;;;;;;-145.93;100.00;59239.47;4835017;29;20044;-87
2022/01/19 09:49:45;;;;;;;102.40;67.63;;;;;;;-145.93;100.00;59239.47;4890439;29;20091;-86
2022/01/19 09:52:22;;;;;;;91.00;65.30;;;;;;;-145.93;100.00;59239.47;4903628;29;20036;-86
2022/01/19 09:54:50;;;;;;;;;;;;;;;-145.93;100.00;59239.47;4902357;29;20096;-91
2022/01/19 09:57:16;;;;;;;106.38;67.95;;;;;;;-145.93;100.00;59239.47;4903713;29;19915;-88
2022/01/19 10:00:16;;;;;;;;;;;;;;;;;;;;;
2022/01/19 10:02:37;;;;;;;100.43;67.38;;;;;;;-145.93;100.00;59239.47;4913335;29;20064;-88
2022/01/19 10:05:08;;;;;;;99.50;66.27;;;;;;;-145.93;100.00;59239.47;4917583;29;20492;-86
2022/01/19 10:07:34;;;;;;;98.40;66.88;;;;;;;-145.93;100.00;59239.47;4923880;29;20027;-87
2022/01/19 10:10:03;;;;;;;97.67;65.63;;;;;;;-145.93;100.00;59239.47;4918542;29;20033;-87
2022/01/19 10:18:33;;;;;;;103.55;67.30;;;;;;;-145.93;100.00;59239.47;4939111;29;20062;-87
2022/01/19 10:21:16;;;;;;;105.78;67.63;;;;;;;-145.93;100.00;59239.47;4920085;29;20031;-86
2022/01/19 10:23:44;;;;;;;99.30;68.47;;;;;;;-145.93;100.00;59239.47;4917293;29;20027;-88
2022/01/19 10:26:27;;;;;;;108.20;67.50;;;;;;;-145.93;100.00;59239.47;4914468;29;20051;-86
2022/01/19 10:29:02;;;;;;;104.10;66.18;;;;;;;-145.93;100.00;59239.47;4921533;29;20027;-86
2022/01/19 10:31:38;;;;;;;97.95;67.53;;;;;;;-145.93;100.00;59239.47;4927973;29;20093;-86
2022/01/19 10:34:15;;;;;;;103.78;66.47;;;;;;;-145.93;100.00;59239.47;4931168;29;20020;-87
2022/01/19 10:36:51;;;;;;;84.85;63.17;;;;;;;-145.93;100.00;59239.47;4920743;29;20028;-86
2022/01/19 10:39:51;;;;;;;101.53;67.32;;;;;;;-145.93;100.00;59239.47;4902788;29;20035;-85
2022/01/19 10:42:32;;;;;;;92.95;65.40;;;;;;;-145.93;100.00;59239.47;4916951;29;20024;-85
2022/01/19 10:48:39;;;;;;;85.22;63.08;;;;;;;-145.93;100.00;59239.47;4866555;29;20029;-85
2022/01/19 10:51:21;;;;;;;90.88;65.57;;;;;;;-145.93;100.00;59239.47;4908274;29;20036;-86
2022/01/19 10:54:57;;;;;;;89.95;66.60;;;;;;;-145.93;100.00;59239.47;4924634;29;20071;-86
2022/01/19 10:57:28;;;;;;;92.45;65.80;;;;;;;-145.93;100.00;59239.47;4905645;28;20130;-86
2022/01/19 11:00:38;;;;;;;85.15;65.50;;;;;;;-145.93;100.00;59239.47;4943052;28;20079;-86
2022/01/19 11:03:25;;;;;;;100.88;67.97;;;;;;;-145.93;100.00;59239.47;4833973;29;20038;-86
2022/01/19 11:05:57;;;;;;;98.07;67.22;;;;;;;-145.93;100.00;59239.47;4924350;29;20019;-87
2022/01/19 11:08:35;;;;;;;97.93;67.47;;;;;;;-145.93;100.00;59239.47;4926729;29;20060;-85
2022/01/19 11:14:24;;;;;;;89.97;65.45;;;;;;;-145.93;100.00;59239.47;4911767;28;20042;-87
2022/01/19 11:16:51;;;;;;;95.80;66.78;;;;;;;-145.93;100.00;59239.47;4926309;28;20019;-87
2022/01/19 11:19:16;;;;;;;87.47;65.30;;;;;;;-145.93;100.00;59239.47;4936054;29;20043;-85
2022/01/19 11:22:10;;;;;;;97.60;68.23;;;;;;;-145.93;100.00;59239.47;4916136;29;20039;-86
2022/01/19 11:25:01;;;;;;;89.85;65.60;;;;;;;-145.93;100.00;59239.47;4933219;29;20094;-87
2022/01/19 11:27:36;;;;;;;93.20;64.20;;;;;;;-145.93;100.00;59239.47;4930457;29;20028;-87
2022/01/19 11:30:40;;;;;;;94.10;65.35;;;;;;;-145.93;100.00;59239.47;4923468;29;20028;-87
2022/01/19 11:33:57;;;;;;;;;;;;;;;;;;;;;
2022/01/19 11:36:44;;;;;;;94.10;64.07;;;;;;;-145.93;100.00;59239.47;4954276;28;20059;-86
2022/01/19 11:39:22;;;;;;;93.70;65.97;;;;;;;-145.93;100.00;59239.47;4921416;29;20028;-87
2022/01/19 11:41:54;;;;;;;95.47;67.03;;;;;;;-145.93;100.00;59239.47;4918819;29;20023;-88
2022/01/19 11:44:30;;;;;;;95.93;68.72;;;;;;;-145.93;100.00;59239.47;4912109;29;20038;-88
2022/01/19 11:47:24;;;;;;;125.13;72.32;;;;;;;-145.93;100.00;59239.47;4923710;29;20032;-90
2022/01/19 11:50:11;;;;;;;89.45;64.88;;;;;;;-145.93;100.00;59239.47;4914666;29;20036;-87
2022/01/19 11:52:42;;;;;;;101.03;66.82;;;;;;;-145.93;100.00;59239.47;4917198;29;20027;-87
2022/01/19 11:55:26;;;;;;;102.20;69.60;;;;;;;-145.93;100.00;59239.47;4936876;29;20020;-85
2022/01/19 11:58:20;;;;;;;99.93;66.82;;;;;;;-145.93;100.00;59239.47;4912923;29;20038;-89
2022/01/19 12:00:49;;;;;;;106.18;68.07;;;;;;;-145.93;100.00;59239.47;4926437;29;20036;-89
2022/01/19 12:03:26;;;;;;;99.00;66.63;;;;;;;-145.93;100.00;59239.47;4915158;29;20048;-87
2022/01/19 12:05:53;;;;;;;95.25;67.55;;;;;;;-145.93;100.00;59239.47;4919512;29;20059;-88
2022/01/19 12:08:20;;;;;;;;;;;;;;;-145.93;100.00;59239.47;4922048;29;20020;-87
2022/01/19 12:10:48;;;;;;;104.32;66.90;;;;;;;-145.93;100.00;59239.47;4921359;29;19911;-86
2022/01/19 12:18:56;;;;;;;98.25;65.50;;;;;;;-145.93;100.00;59239.47;4950443;23;20048;-77
2022/01/19 12:21:31;;;;;;;98.75;68.07;;;;;;;-145.93;100.00;59239.47;4894211;29;20075;-78
2022/01/19 12:24:19;;;;;;;102.57;69.40;;;;;;;-145.93;100.00;59239.47;4903400;29;20024;-78
2022/01/19 12:26:56;;;;;;;106.10;71.03;;;;;;;-145.93;100.00;59239.47;4880232;29;20061;-77
2022/01/19 12:29:36;;;;;;;97.13;65.55;;;;;;;-145.93;100.00;59239.47;4913592;29;20028;-78
2022/01/19 12:32:18;;;;;;;92.28;67.10;;;;;;;-145.93;100.00;59239.47;4902883;29;20119;-79
2022/01/19 12:34:48;;;;;;;104.68;67.55;;;;;;;-145.93;100.00;59239.47;4899883;29;20032;-79
2022/01/19 12:37:47;;;;;;;90.60;65.55;;;;;;;-145.93;100.00;59239.47;4902317;29;20046;-79
2022/01/19 12:40:18;;;;;;;100.90;67.38;;;;;;;-145.93;100.00;59239.47;4881409;29;20040;-78
2022/01/19 12:42:46;;;;;;;110.45;69.35;;;;;;;-145.93;100.00;59239.47;4899624;29;20036;-79
2022/01/19 12:45:16;;;;;;;103.35;69.47;;;;;;;-145.93;100.00;59239.47;4904088;29;20063;-79
2022/01/19 12:47:43;;;;;;;145.25;80.65;;;;;;;-145.93;100.00;59239.47;4908559;29;20106;-79
2022/01/19 12:50:09;;;;;;;90.10;65.93;;;;;;;-145.93;100.00;59239.47;4885614;29;20020;-79
2022/01/19 12:53:12;;;;;;;102.13;68.00;;;;;;;-145.93;100.00;59239.47;4913701;29;20060;-80
2022/01/19 12:55:39;;;;;;;101.68;68.70;;;;;;;-145.93;100.00;59239.47;4861186;29;20582;-79
2022/01/19 12:58:35;;;;;;;90.38;67.53;;;;;;;-145.93;100.00;59239.47;4880416;29;20036;-79
2022/01/19 13:01:05;;;;;;;92.70;66.85;;;;;;;-145.93;100.00;59239.47;4871076;29;20060;-80